Nearby METAR Reports

 

EIDW - Dublin Airport, Ireland
Distance from station: ENE 79km
Updated: 07/07/2022 08:00
Mostly cloudy
Mostly cloudy
 Wind from WNW
Wind: WNW 20 km/h
Temperature: 15°C
Dew Point: 12°C
Humidity: 82%
Barometer: 1031 hPa
Clouds: Mostly cloudy
Visibility: 10 km
Cloud details: Few Clouds 305 m
Partly cloudy 366 m
Mostly cloudy 396 m
2022/07/07 07:00 EIDW 070700Z 29011KT 9999 FEW010 SCT012 BKN013 15/12 Q1031 BECMG BKN017
EIME - Casement (mil), Ireland
Distance from station: ENE 62km
Updated: 07/07/2022 07:00
Mostly cloudy
Mostly cloudy
 Wind from WNW
Wind: WNW 20 km/h
Temperature: 14°C
Dew Point: 12°C
Humidity: 88%
Barometer: 1031 hPa
Clouds: Mostly cloudy
Visibility: 10 km
Cloud details: Partly cloudy 274 m
Mostly cloudy 335 m
2022/07/07 06:00 EIME 070600Z 29011KT 9999 SCT009 BKN011 14/12 Q1031
EIWF - Waterford Arpt, Ireland
Distance from station: S 111km
Updated: 07/07/2022 00:00
NOT Current
Mostly cloudy
Mostly cloudy
 Wind from NW
Wind: NW 15 km/h
Temperature: 15°C
Dew Point: 14°C
Humidity: 94%
Barometer: 1030 hPa
Clouds: Mostly cloudy
Visibility: 10 km
Cloud details: Partly cloudy 213 m
Mostly cloudy 366 m
2022/07/06 23:00 EIWF 062300Z 32008KT 260V010 9999 SCT007 BKN012 15/14 Q1030
 
EINN - Shannon Airport, Ireland
Distance from station: WSW 117km
Updated: 07/07/2022 08:00
Mostly cloudy
Mostly cloudy
 Wind from WNW
Wind: WNW 13 km/h
Temperature: 15°C
Dew Point: 14°C
Humidity: 94%
Barometer: 1033 hPa
Clouds: Mostly cloudy
Visibility: 10 km
Cloud details: Mostly cloudy 183 m
Mostly cloudy 244 m
2022/07/07 07:00 EINN 070700Z 30007KT 9999 BKN006 BKN008 15/14 Q1033 BECMG BKN012
EISG - Sligo Arpt, Ireland
Distance from station: NNW 148km
Updated: 06/07/2022 21:30
NOT Current
Mist, Overcast
Mist, Overcast
 Wind from WNW
Wind: WNW 28 km/h
Temperature: 13°C
Dew Point: 13°C
Humidity: 100%
Barometer: 1029 hPa
Summary: Mist
Clouds: Overcast
Visibility: 4 km
Cloud details: Overcast 152 m
2022/07/06 20:30 EISG 062030Z 29015KT 4400 BR OVC005 13/13 Q1029
EICK - Cork Arpt/Corcai, Ireland
Distance from station: SSW 165km
Updated: 07/07/2022 08:00
Mostly cloudy
Mostly cloudy
 Wind from NNW
Wind: NNW 24 km/h
Temperature: 15°C
Dew Point: 13°C
Humidity: 88%
Barometer: 1033 hPa
Clouds: Mostly cloudy
Visibility: 10 km
Cloud details: Mostly cloudy 244 m
2022/07/07 07:00 EICK 070700Z 33013KT 9999 BKN008 15/13 Q1033 BECMG BKN013
 
EGAA - Belfast/Aldergro, United Kingdom
Distance from station: NNE 179km
Updated: 07/07/2022 07:50
Overcast
Overcast
 Wind from WNW
Wind: WNW 15 km/h
Temperature: 13°C
Dew Point: 11°C
Humidity: 88%
Barometer: 1031 hPa
Clouds: Overcast
Visibility: 10 km
Cloud details: Overcast 274 m
2022/07/07 06:50 EGAA 070650Z AUTO 29008KT 9999 OVC009 13/11 Q1031
EIKY - Kerry Arpt, Ireland
Distance from station: SW 182km
Updated: 06/07/2022 17:30
NOT Current
Overcast
Overcast
 Wind from NW
Wind: NW 20 km/h
Temperature: 16°C
Dew Point: 14°C
Humidity: 88%
Barometer: 1032 hPa
Clouds: Overcast
Visibility: 10 km
Cloud details: Partly cloudy 762 m
Overcast 1189 m
2022/07/06 16:30 EIKY 061630Z 31011KT 270V330 9999 SCT025 OVC039 16/14 Q1032
EGAC - Belfast Harbour, United Kingdom
Distance from station: NNE 188km
Updated: 07/07/2022 07:50
Overcast
Overcast
 Wind from NNW
Wind: NNW 6 km/h
Temperature: 14°C
Dew Point: 11°C
Humidity: 82%
Barometer: 1031 hPa
Clouds: Overcast
Visibility: 10 km
Cloud details: Overcast 305 m
2022/07/07 06:50 EGAC 070650Z AUTO 33003KT 290V020 9999 OVC010 14/11 Q1031
 
EGOV - Valley Raf, United Kingdom
Distance from station: E 188km
Updated: 07/07/2022 07:50
Overcast
Overcast
 Wind from N
Wind: N 19 km/h
Temperature: 15°C
Dew Point: 11°C
Humidity: 77%
Barometer: 1030 hPa
Clouds: Overcast
Visibility: 10 km
Cloud details: Partly cloudy 366 m
Overcast 549 m
2022/07/07 06:50 EGOV 070650Z 35010KT 9999 SCT012 OVC018 15/11 Q1030 TEMPO FEW012 RMK GRN TEMPO WHT
EGNS - Isle Of Man/Rona, United Kingdom
Distance from station: ENE 207km
Updated: 07/07/2022 07:50
Mostly cloudy
Mostly cloudy
 Wind from NNW
Wind: NNW 33 km/h
Temperature: 14°C
Dew Point: 11°C
Humidity: 82%
Barometer: 1029 hPa
Clouds: Mostly cloudy
Visibility: 10 km
Cloud details: Few Clouds 244 m
Mostly cloudy 366 m
2022/07/07 06:50 EGNS 070650Z 33018KT 290V010 9999 FEW008 BKN012 14/11 Q1029 NOSIG